createdAt,value
2022-09-10T00:05:47.278Z,15.70
2022-09-10T00:11:42.067Z,15.60
2022-09-10T00:17:36.706Z,15.60
2022-09-10T00:23:31.846Z,15.70
2022-09-10T00:29:25.111Z,15.70
2022-09-10T00:35:20.194Z,15.70
2022-09-10T00:41:15.273Z,15.70
2022-09-10T00:47:14.114Z,15.50
2022-09-10T00:53:13.068Z,15.40
2022-09-10T00:59:11.104Z,15.50
2022-09-10T01:05:06.005Z,15.50
2022-09-10T01:11:11.578Z,15.40
2022-09-10T01:17:15.797Z,15.60
2022-09-10T01:23:43.477Z,15.70
2022-09-10T01:29:44.856Z,15.60
2022-09-10T01:35:43.456Z,15.60
2022-09-10T01:41:37.408Z,15.70
2022-09-10T01:48:04.708Z,15.80
2022-09-10T01:54:15.652Z,15.70
2022-09-10T02:00:12.005Z,15.80
2022-09-10T02:06:13.044Z,15.60
2022-09-10T02:12:08.407Z,15.70
2022-09-10T02:18:16.011Z,15.70
2022-09-10T02:24:12.886Z,15.80
2022-09-10T02:30:09.294Z,15.80
2022-09-10T02:36:05.357Z,15.80
2022-09-10T02:42:02.227Z,15.80
2022-09-10T02:47:56.200Z,15.50
2022-09-10T02:53:50.542Z,15.50
2022-09-10T02:59:45.375Z,15.60
2022-09-10T03:05:39.139Z,15.60
2022-09-10T03:11:32.486Z,15.60
2022-09-10T03:17:27.535Z,15.60
2022-09-10T03:23:21.203Z,15.60
2022-09-10T03:29:15.838Z,15.60
2022-09-10T03:35:12.926Z,15.60
2022-09-10T03:41:05.978Z,15.60
2022-09-10T03:46:59.435Z,15.60
2022-09-10T03:52:54.980Z,15.60
2022-09-10T03:58:49.228Z,15.50
2022-09-10T04:04:42.820Z,15.50
2022-09-10T04:10:37.485Z,15.60
2022-09-10T04:16:31.503Z,15.30
2022-09-10T04:22:25.112Z,15.20
2022-09-10T04:28:20.216Z,15.20
2022-09-10T04:34:16.695Z,15.10
2022-09-10T04:40:11.288Z,15.00
2022-09-10T04:46:06.343Z,15.00
2022-09-10T04:52:00.797Z,15.00
2022-09-10T04:57:54.702Z,15.10
2022-09-10T05:03:49.798Z,15.10
2022-09-10T05:09:42.839Z,15.20
2022-09-10T05:15:41.875Z,15.30
2022-09-10T05:21:37.350Z,15.30
2022-09-10T05:27:30.355Z,15.30
2022-09-10T05:33:23.457Z,15.40
2022-09-10T05:39:18.056Z,15.40
2022-09-10T05:45:12.979Z,15.50
2022-09-10T05:51:07.454Z,15.50
2022-09-10T05:57:01.767Z,15.50
2022-09-10T06:02:57.330Z,15.60
2022-09-10T06:08:58.415Z,15.40
2022-09-10T06:15:04.990Z,15.60
2022-09-10T06:21:05.829Z,15.70
2022-09-10T06:26:59.736Z,15.70
2022-09-10T06:32:57.883Z,15.70
2022-09-10T06:38:58.501Z,15.80
2022-09-10T06:44:52.022Z,15.90
2022-09-10T06:50:59.907Z,15.80
2022-09-10T06:57:01.382Z,15.80
2022-09-10T07:02:56.131Z,15.80
2022-09-10T07:08:55.682Z,15.90
2022-09-10T07:14:49.453Z,16.00
2022-09-10T07:20:43.738Z,16.10
2022-09-10T07:26:38.820Z,16.20
2022-09-10T07:32:33.910Z,16.40
2022-09-10T07:38:34.013Z,16.40
2022-09-10T07:44:28.758Z,16.40
2022-09-10T07:50:26.875Z,16.40
2022-09-10T07:56:22.493Z,16.50
2022-09-10T08:02:17.790Z,16.40
2022-09-10T08:08:19.990Z,16.40
2022-09-10T08:14:14.145Z,16.30
2022-09-10T08:20:13.831Z,16.30
2022-09-10T08:26:10.241Z,16.50
2022-09-10T08:32:05.405Z,16.50
2022-09-10T08:38:00.122Z,16.40
2022-09-10T08:43:57.317Z,16.40
2022-09-10T08:49:57.230Z,16.50
2022-09-10T08:55:52.443Z,16.60
2022-09-10T09:01:50.636Z,16.60
2022-09-10T09:07:44.631Z,16.60
2022-09-10T09:14:05.048Z,16.70
2022-09-10T09:20:07.975Z,16.70
2022-09-10T09:26:12.688Z,16.90
2022-09-10T09:32:16.290Z,16.90
2022-09-10T09:38:19.031Z,17.00
2022-09-10T09:44:22.865Z,17.10
2022-09-10T09:50:18.752Z,17.10
2022-09-10T09:56:18.564Z,17.20
2022-09-10T10:02:14.956Z,17.30
2022-09-10T10:08:31.235Z,17.40
2022-09-10T10:14:38.482Z,17.50
2022-09-10T10:20:41.667Z,17.60
2022-09-10T10:26:38.702Z,17.60
2022-09-10T10:32:52.856Z,17.90
2022-09-10T10:38:50.698Z,17.70
2022-09-10T10:45:00.005Z,17.80
2022-09-10T10:50:59.400Z,17.80
2022-09-10T10:57:03.542Z,17.80
2022-09-10T11:03:05.885Z,18.00
2022-09-10T11:09:03.156Z,18.00
2022-09-10T11:15:01.728Z,18.00
2022-09-10T11:21:04.525Z,18.30
2022-09-10T11:27:04.001Z,18.40
2022-09-10T11:33:03.041Z,18.50
2022-09-10T11:39:08.662Z,19.10
2022-09-10T11:45:08.648Z,19.40
2022-09-10T11:51:04.241Z,20.00
2022-09-10T11:57:02.050Z,20.60
2022-09-10T12:03:36.230Z,21.00
2022-09-10T12:09:37.694Z,21.00
2022-09-10T12:15:34.747Z,21.50
2022-09-10T12:21:34.170Z,20.90
2022-09-10T12:27:46.213Z,21.20
2022-09-10T12:34:12.677Z,20.80
2022-09-10T12:40:46.200Z,20.80
2022-09-10T12:46:44.810Z,20.90
2022-09-10T12:52:52.782Z,21.50
2022-09-10T12:58:59.631Z,20.90
2022-09-10T13:04:59.619Z,20.50
2022-09-10T13:11:13.855Z,20.60
2022-09-10T13:17:29.511Z,20.50
2022-09-10T13:23:25.323Z,20.70
2022-09-10T13:29:35.234Z,21.00
2022-09-10T13:36:01.702Z,21.90
2022-09-10T13:42:13.481Z,23.20
2022-09-10T13:48:15.119Z,22.60
2022-09-10T13:54:14.112Z,22.20
2022-09-10T14:00:19.894Z,22.60
2022-09-10T14:06:17.306Z,24.00
2022-09-10T14:12:14.175Z,24.30
2022-09-10T14:18:12.119Z,23.30
2022-09-10T14:24:05.420Z,22.80
2022-09-10T14:30:17.187Z,22.30
2022-09-10T14:36:21.994Z,22.30
2022-09-10T14:42:27.533Z,22.00
2022-09-10T14:48:37.357Z,21.90
2022-09-10T14:54:34.686Z,21.50
2022-09-10T15:00:28.648Z,20.80
2022-09-10T15:06:26.049Z,20.90
2022-09-10T15:12:25.206Z,20.80
2022-09-10T15:18:18.195Z,20.60
2022-09-10T15:24:15.794Z,20.90
2022-09-10T15:30:10.858Z,21.00
2022-09-10T15:36:05.083Z,21.50
2022-09-10T15:41:59.674Z,21.40
2022-09-10T15:47:54.594Z,21.30
2022-09-10T15:53:47.406Z,21.10
2022-09-10T15:59:40.929Z,20.10
2022-09-10T16:05:35.313Z,19.60
2022-09-10T16:11:28.915Z,19.40
2022-09-10T16:17:22.176Z,19.40
2022-09-10T16:23:17.106Z,19.20
2022-09-10T16:29:15.064Z,19.40
2022-09-10T16:35:08.597Z,19.50
2022-09-10T16:41:04.034Z,19.70
2022-09-10T16:46:58.037Z,19.70
2022-09-10T16:52:52.554Z,19.60
2022-09-10T16:58:49.586Z,19.50
2022-09-10T17:04:42.969Z,19.40
2022-09-10T17:10:36.218Z,19.10
2022-09-10T17:16:32.962Z,19.10
2022-09-10T17:22:27.342Z,19.10
2022-09-10T17:28:20.195Z,18.90
2022-09-10T17:34:15.892Z,19.00
2022-09-10T17:40:10.286Z,18.90
2022-09-10T17:46:04.498Z,18.80
2022-09-10T17:52:00.516Z,18.60
2022-09-10T17:57:53.790Z,18.70
2022-09-10T18:03:47.226Z,18.60
2022-09-10T18:09:41.806Z,18.60
2022-09-10T18:15:35.247Z,18.50
2022-09-10T18:21:31.629Z,18.40
2022-09-10T18:27:26.697Z,18.30
2022-09-10T18:33:19.979Z,18.30
2022-09-10T18:39:14.237Z,18.20
2022-09-10T18:45:10.128Z,18.20
2022-09-10T18:51:06.693Z,18.10
2022-09-10T18:56:59.997Z,18.00
2022-09-10T19:02:55.706Z,17.90
2022-09-10T19:08:50.164Z,18.10
2022-09-10T19:14:43.482Z,17.70
2022-09-10T19:20:38.926Z,17.70
2022-09-10T19:26:35.037Z,17.70
2022-09-10T19:32:28.259Z,17.60
2022-09-10T19:38:37.107Z,17.60
2022-09-10T19:44:31.562Z,17.40
2022-09-10T19:50:24.673Z,17.50
2022-09-10T19:56:21.637Z,17.40
2022-09-10T20:02:15.024Z,17.10
2022-09-10T20:08:10.032Z,17.10
2022-09-10T20:14:08.230Z,17.10
2022-09-10T20:20:03.214Z,17.00
2022-09-10T20:25:56.122Z,17.00
2022-09-10T20:31:50.677Z,16.90
2022-09-10T20:37:43.928Z,16.80
2022-09-10T20:43:37.890Z,16.70
2022-09-10T20:49:32.481Z,16.80
2022-09-10T20:55:25.704Z,16.70
2022-09-10T21:01:20.121Z,16.60
2022-09-10T21:07:15.372Z,16.70
2022-09-10T21:13:09.961Z,16.80
2022-09-10T21:19:04.754Z,16.70
2022-09-10T21:24:59.310Z,16.90
2022-09-10T21:30:52.607Z,16.80
2022-09-10T21:36:45.881Z,16.80
2022-09-10T21:42:40.490Z,17.10
2022-09-10T21:48:36.222Z,17.00
2022-09-10T21:54:29.560Z,17.00
2022-09-10T22:00:25.906Z,17.00
2022-09-10T22:06:23.314Z,16.90
2022-09-10T22:12:16.551Z,16.90
2022-09-10T22:18:11.290Z,16.70
2022-09-10T22:24:04.173Z,16.60
2022-09-10T22:29:57.752Z,16.60
2022-09-10T22:35:52.380Z,16.50
2022-09-10T22:41:46.483Z,16.40
2022-09-10T22:47:39.703Z,16.40
2022-09-10T22:53:34.407Z,16.30
2022-09-10T22:59:28.100Z,16.20
2022-09-10T23:05:21.350Z,16.20
2022-09-10T23:11:17.352Z,16.40
2022-09-10T23:17:10.571Z,16.30
2022-09-10T23:23:04.157Z,16.30
2022-09-10T23:29:00.701Z,16.20
2022-09-10T23:34:53.928Z,16.10
2022-09-10T23:40:47.506Z,16.20
2022-09-10T23:46:42.211Z,16.20
2022-09-10T23:52:35.499Z,16.10
2022-09-10T23:58:28.737Z,16.20
